sensor_id;sensor_type;location;lat;lon;timestamp;P1;durP1;ratioP1;P2;durP2;ratioP2
43042;SDS011;28667;50.758;6.096;2022-11-11T00:00:30;0.47;;;0.38;;
43042;SDS011;28667;50.758;6.096;2022-11-11T00:03:41;4.20;;;0.73;;
43042;SDS011;28667;50.758;6.096;2022-11-11T00:06:26;0.20;;;0.20;;
43042;SDS011;28667;50.758;6.096;2022-11-11T00:09:18;0.60;;;0.47;;
43042;SDS011;28667;50.758;6.096;2022-11-11T00:15:38;0.88;;;0.60;;
43042;SDS011;28667;50.758;6.096;2022-11-11T00:18:36;0.38;;;0.30;;
43042;SDS011;28667;50.758;6.096;2022-11-11T00:21:54;0.80;;;0.60;;
43042;SDS011;28667;50.758;6.096;2022-11-11T00:25:04;2.03;;;0.43;;
43042;SDS011;28667;50.758;6.096;2022-11-11T00:27:56;3.20;;;0.60;;
43042;SDS011;28667;50.758;6.096;2022-11-11T00:34:28;2.05;;;0.60;;
43042;SDS011;28667;50.758;6.096;2022-11-11T00:38:02;0.50;;;0.40;;
43042;SDS011;28667;50.758;6.096;2022-11-11T00:41:22;2.05;;;0.63;;
43042;SDS011;28667;50.758;6.096;2022-11-11T00:44:29;1.23;;;1.00;;
43042;SDS011;28667;50.758;6.096;2022-11-11T00:47:41;1.30;;;0.82;;
43042;SDS011;28667;50.758;6.096;2022-11-11T00:51:15;0.45;;;0.40;;
43042;SDS011;28667;50.758;6.096;2022-11-11T01:02:17;0.55;;;0.50;;
43042;SDS011;28667;50.758;6.096;2022-11-11T01:05:31;1.55;;;0.55;;
43042;SDS011;28667;50.758;6.096;2022-11-11T01:08:37;3.90;;;0.82;;
43042;SDS011;28667;50.758;6.096;2022-11-11T01:11:44;3.08;;;0.70;;
43042;SDS011;28667;50.758;6.096;2022-11-11T01:15:17;0.85;;;0.22;;
43042;SDS011;28667;50.758;6.096;2022-11-11T01:18:36;2.65;;;0.50;;
43042;SDS011;28667;50.758;6.096;2022-11-11T01:25:15;1.95;;;0.40;;
43042;SDS011;28667;50.758;6.096;2022-11-11T01:28:53;0.65;;;0.47;;
43042;SDS011;28667;50.758;6.096;2022-11-11T01:31:56;1.08;;;0.80;;
43042;SDS011;28667;50.758;6.096;2022-11-11T01:34:40;1.70;;;0.70;;
43042;SDS011;28667;50.758;6.096;2022-11-11T01:37:24;1.00;;;0.68;;
43042;SDS011;28667;50.758;6.096;2022-11-11T01:40:08;1.42;;;0.60;;
43042;SDS011;28667;50.758;6.096;2022-11-11T01:43:12;1.90;;;0.60;;
43042;SDS011;28667;50.758;6.096;2022-11-11T01:46:00;0.60;;;0.43;;
43042;SDS011;28667;50.758;6.096;2022-11-11T01:48:50;5.15;;;0.80;;
43042;SDS011;28667;50.758;6.096;2022-11-11T01:55:12;1.48;;;0.73;;
43042;SDS011;28667;50.758;6.096;2022-11-11T01:58:08;2.58;;;0.95;;
43042;SDS011;28667;50.758;6.096;2022-11-11T02:00:57;0.52;;;0.40;;
43042;SDS011;28667;50.758;6.096;2022-11-11T02:06:49;4.10;;;1.05;;
43042;SDS011;28667;50.758;6.096;2022-11-11T02:09:38;0.60;;;0.40;;
43042;SDS011;28667;50.758;6.096;2022-11-11T02:12:25;3.25;;;0.40;;
43042;SDS011;28667;50.758;6.096;2022-11-11T02:15:27;1.00;;;0.70;;
43042;SDS011;28667;50.758;6.096;2022-11-11T02:18:12;0.70;;;0.60;;
43042;SDS011;28667;50.758;6.096;2022-11-11T02:20:56;0.35;;;0.35;;
43042;SDS011;28667;50.758;6.096;2022-11-11T02:26:29;0.43;;;0.40;;
43042;SDS011;28667;50.758;6.096;2022-11-11T02:29:17;0.85;;;0.57;;
43042;SDS011;28667;50.758;6.096;2022-11-11T02:32:03;0.60;;;0.40;;
43042;SDS011;28667;50.758;6.096;2022-11-11T02:34:48;0.60;;;0.43;;
43042;SDS011;28667;50.758;6.096;2022-11-11T02:37:32;3.53;;;0.63;;
43042;SDS011;28667;50.758;6.096;2022-11-11T02:40:28;0.43;;;0.30;;
43042;SDS011;28667;50.758;6.096;2022-11-11T02:43:17;0.45;;;0.30;;
43042;SDS011;28667;50.758;6.096;2022-11-11T02:46:03;0.82;;;0.40;;
43042;SDS011;28667;50.758;6.096;2022-11-11T02:48:48;1.38;;;0.28;;
43042;SDS011;28667;50.758;6.096;2022-11-11T02:51:32;1.60;;;0.45;;
43042;SDS011;28667;50.758;6.096;2022-11-11T02:54:16;0.55;;;0.40;;
43042;SDS011;28667;50.758;6.096;2022-11-11T02:57:00;1.75;;;0.93;;
43042;SDS011;28667;50.758;6.096;2022-11-11T02:59:50;0.80;;;0.43;;
43042;SDS011;28667;50.758;6.096;2022-11-11T03:02:35;1.48;;;0.60;;
43042;SDS011;28667;50.758;6.096;2022-11-11T03:05:19;0.30;;;0.25;;
43042;SDS011;28667;50.758;6.096;2022-11-11T03:08:04;0.75;;;0.40;;
43042;SDS011;28667;50.758;6.096;2022-11-11T03:10:49;1.08;;;0.43;;
43042;SDS011;28667;50.758;6.096;2022-11-11T03:13:33;1.80;;;0.30;;
43042;SDS011;28667;50.758;6.096;2022-11-11T03:16:18;0.93;;;0.30;;
43042;SDS011;28667;50.758;6.096;2022-11-11T03:19:21;1.20;;;0.40;;
43042;SDS011;28667;50.758;6.096;2022-11-11T03:22:05;0.25;;;0.20;;
43042;SDS011;28667;50.758;6.096;2022-11-11T03:24:49;1.38;;;0.65;;
43042;SDS011;28667;50.758;6.096;2022-11-11T03:27:52;2.30;;;0.60;;
43042;SDS011;28667;50.758;6.096;2022-11-11T03:30:37;2.75;;;0.32;;
43042;SDS011;28667;50.758;6.096;2022-11-11T03:33:23;0.13;;;0.13;;
43042;SDS011;28667;50.758;6.096;2022-11-11T03:36:07;0.93;;;0.30;;
43042;SDS011;28667;50.758;6.096;2022-11-11T03:38:51;0.65;;;0.30;;
43042;SDS011;28667;50.758;6.096;2022-11-11T03:41:35;0.20;;;0.20;;
43042;SDS011;28667;50.758;6.096;2022-11-11T03:44:20;0.50;;;0.40;;
43042;SDS011;28667;50.758;6.096;2022-11-11T03:47:04;1.65;;;0.55;;
43042;SDS011;28667;50.758;6.096;2022-11-11T03:49:48;0.15;;;0.13;;
43042;SDS011;28667;50.758;6.096;2022-11-11T03:52:32;0.28;;;0.22;;
43042;SDS011;28667;50.758;6.096;2022-11-11T03:55:16;0.30;;;0.20;;
43042;SDS011;28667;50.758;6.096;2022-11-11T03:58:00;1.25;;;0.32;;
43042;SDS011;28667;50.758;6.096;2022-11-11T04:00:45;0.57;;;0.52;;
43042;SDS011;28667;50.758;6.096;2022-11-11T04:03:29;0.77;;;0.40;;
43042;SDS011;28667;50.758;6.096;2022-11-11T04:06:32;2.80;;;0.30;;
43042;SDS011;28667;50.758;6.096;2022-11-11T04:09:35;0.55;;;0.20;;
43042;SDS011;28667;50.758;6.096;2022-11-11T04:12:38;3.13;;;0.40;;
43042;SDS011;28667;50.758;6.096;2022-11-11T04:15:43;1.02;;;0.30;;
43042;SDS011;28667;50.758;6.096;2022-11-11T04:18:46;0.30;;;0.30;;
43042;SDS011;28667;50.758;6.096;2022-11-11T04:21:49;0.20;;;0.10;;
43042;SDS011;28667;50.758;6.096;2022-11-11T04:24:33;1.45;;;0.45;;
43042;SDS011;28667;50.758;6.096;2022-11-11T04:27:36;0.52;;;0.30;;
43042;SDS011;28667;50.758;6.096;2022-11-11T04:30:20;0.47;;;0.38;;
43042;SDS011;28667;50.758;6.096;2022-11-11T04:33:05;0.43;;;0.38;;
43042;SDS011;28667;50.758;6.096;2022-11-11T04:35:49;1.40;;;0.50;;
43042;SDS011;28667;50.758;6.096;2022-11-11T04:38:33;0.30;;;0.20;;
43042;SDS011;28667;50.758;6.096;2022-11-11T04:41:36;0.50;;;0.28;;
43042;SDS011;28667;50.758;6.096;2022-11-11T04:44:21;0.43;;;0.43;;
43042;SDS011;28667;50.758;6.096;2022-11-11T04:47:24;2.53;;;0.45;;
43042;SDS011;28667;50.758;6.096;2022-11-11T04:50:08;0.60;;;0.30;;
43042;SDS011;28667;50.758;6.096;2022-11-11T04:52:52;0.20;;;0.20;;
43042;SDS011;28667;50.758;6.096;2022-11-11T04:55:40;0.52;;;0.20;;
43042;SDS011;28667;50.758;6.096;2022-11-11T04:58:44;1.40;;;0.35;;
43042;SDS011;28667;50.758;6.096;2022-11-11T05:01:29;0.73;;;0.17;;
43042;SDS011;28667;50.758;6.096;2022-11-11T05:04:32;0.20;;;0.20;;
43042;SDS011;28667;50.758;6.096;2022-11-11T05:07:16;0.30;;;0.30;;
43042;SDS011;28667;50.758;6.096;2022-11-11T05:10:20;0.20;;;0.20;;
43042;SDS011;28667;50.758;6.096;2022-11-11T05:13:04;0.15;;;0.15;;
43042;SDS011;28667;50.758;6.096;2022-11-11T05:16:08;0.20;;;0.10;;
43042;SDS011;28667;50.758;6.096;2022-11-11T05:19:19;0.60;;;0.28;;
43042;SDS011;28667;50.758;6.096;2022-11-11T05:22:23;1.75;;;0.20;;
43042;SDS011;28667;50.758;6.096;2022-11-11T05:25:24;0.70;;;0.30;;
43042;SDS011;28667;50.758;6.096;2022-11-11T05:28:08;0.52;;;0.45;;
43042;SDS011;28667;50.758;6.096;2022-11-11T05:30:52;0.30;;;0.22;;
43042;SDS011;28667;50.758;6.096;2022-11-11T05:33:37;0.43;;;0.30;;
43042;SDS011;28667;50.758;6.096;2022-11-11T05:36:21;3.50;;;0.45;;
43042;SDS011;28667;50.758;6.096;2022-11-11T05:39:05;0.22;;;0.20;;
43042;SDS011;28667;50.758;6.096;2022-11-11T05:41:49;0.88;;;0.47;;
43042;SDS011;28667;50.758;6.096;2022-11-11T05:44:34;0.38;;;0.20;;
43042;SDS011;28667;50.758;6.096;2022-11-11T05:47:19;2.20;;;0.28;;
43042;SDS011;28667;50.758;6.096;2022-11-11T05:50:03;0.10;;;0.10;;
43042;SDS011;28667;50.758;6.096;2022-11-11T05:52:48;0.40;;;0.40;;
43042;SDS011;28667;50.758;6.096;2022-11-11T05:55:33;0.30;;;0.20;;
43042;SDS011;28667;50.758;6.096;2022-11-11T05:58:17;0.65;;;0.30;;
43042;SDS011;28667;50.758;6.096;2022-11-11T06:01:02;0.77;;;0.43;;
43042;SDS011;28667;50.758;6.096;2022-11-11T06:03:46;0.30;;;0.30;;
43042;SDS011;28667;50.758;6.096;2022-11-11T06:06:31;0.40;;;0.40;;
43042;SDS011;28667;50.758;6.096;2022-11-11T06:09:16;1.52;;;0.50;;
43042;SDS011;28667;50.758;6.096;2022-11-11T06:12:00;0.50;;;0.40;;
43042;SDS011;28667;50.758;6.096;2022-11-11T06:14:45;0.98;;;0.50;;
43042;SDS011;28667;50.758;6.096;2022-11-11T06:17:29;0.40;;;0.30;;
43042;SDS011;28667;50.758;6.096;2022-11-11T06:20:13;0.55;;;0.43;;
43042;SDS011;28667;50.758;6.096;2022-11-11T06:22:58;0.30;;;0.30;;
43042;SDS011;28667;50.758;6.096;2022-11-11T06:25:42;0.65;;;0.43;;
43042;SDS011;28667;50.758;6.096;2022-11-11T06:28:46;1.40;;;0.50;;
43042;SDS011;28667;50.758;6.096;2022-11-11T06:31:31;0.93;;;0.75;;
43042;SDS011;28667;50.758;6.096;2022-11-11T06:34:15;0.85;;;0.60;;
43042;SDS011;28667;50.758;6.096;2022-11-11T06:36:59;0.85;;;0.30;;
43042;SDS011;28667;50.758;6.096;2022-11-11T06:39:43;0.60;;;0.60;;
43042;SDS011;28667;50.758;6.096;2022-11-11T06:42:28;0.30;;;0.30;;
43042;SDS011;28667;50.758;6.096;2022-11-11T06:45:12;0.93;;;0.52;;
43042;SDS011;28667;50.758;6.096;2022-11-11T06:47:56;0.38;;;0.38;;
43042;SDS011;28667;50.758;6.096;2022-11-11T06:50:40;1.23;;;0.40;;
43042;SDS011;28667;50.758;6.096;2022-11-11T06:53:24;0.30;;;0.30;;
43042;SDS011;28667;50.758;6.096;2022-11-11T06:56:09;0.38;;;0.28;;
43042;SDS011;28667;50.758;6.096;2022-11-11T06:58:55;1.98;;;0.80;;
43042;SDS011;28667;50.758;6.096;2022-11-11T07:01:39;2.63;;;0.60;;
43042;SDS011;28667;50.758;6.096;2022-11-11T07:04:23;0.50;;;0.38;;
43042;SDS011;28667;50.758;6.096;2022-11-11T07:07:07;0.77;;;0.68;;
43042;SDS011;28667;50.758;6.096;2022-11-11T07:09:51;1.08;;;0.68;;
43042;SDS011;28667;50.758;6.096;2022-11-11T07:12:39;0.63;;;0.40;;
43042;SDS011;28667;50.758;6.096;2022-11-11T07:15:24;1.15;;;0.70;;
43042;SDS011;28667;50.758;6.096;2022-11-11T07:18:08;1.13;;;0.55;;
43042;SDS011;28667;50.758;6.096;2022-11-11T07:20:53;0.82;;;0.47;;
43042;SDS011;28667;50.758;6.096;2022-11-11T07:23:38;0.63;;;0.47;;
43042;SDS011;28667;50.758;6.096;2022-11-11T07:26:22;4.07;;;0.63;;
43042;SDS011;28667;50.758;6.096;2022-11-11T07:29:07;0.45;;;0.45;;
43042;SDS011;28667;50.758;6.096;2022-11-11T07:31:52;1.48;;;0.60;;
43042;SDS011;28667;50.758;6.096;2022-11-11T07:34:36;1.67;;;0.50;;
43042;SDS011;28667;50.758;6.096;2022-11-11T07:37:20;0.70;;;0.40;;
43042;SDS011;28667;50.758;6.096;2022-11-11T07:40:05;1.17;;;0.50;;
43042;SDS011;28667;50.758;6.096;2022-11-11T07:42:50;1.30;;;0.40;;
43042;SDS011;28667;50.758;6.096;2022-11-11T07:45:34;0.30;;;0.30;;
43042;SDS011;28667;50.758;6.096;2022-11-11T07:48:18;0.40;;;0.40;;
43042;SDS011;28667;50.758;6.096;2022-11-11T07:51:02;0.70;;;0.40;;
43042;SDS011;28667;50.758;6.096;2022-11-11T07:53:47;0.80;;;0.60;;
43042;SDS011;28667;50.758;6.096;2022-11-11T07:56:31;0.32;;;0.30;;
43042;SDS011;28667;50.758;6.096;2022-11-11T07:59:18;1.38;;;0.40;;
43042;SDS011;28667;50.758;6.096;2022-11-11T08:02:02;0.82;;;0.63;;
43042;SDS011;28667;50.758;6.096;2022-11-11T08:04:47;2.85;;;0.82;;
43042;SDS011;28667;50.758;6.096;2022-11-11T08:07:32;1.25;;;0.50;;
43042;SDS011;28667;50.758;6.096;2022-11-11T08:10:17;0.85;;;0.57;;
43042;SDS011;28667;50.758;6.096;2022-11-11T08:13:02;2.00;;;0.53;;
43042;SDS011;28667;50.758;6.096;2022-11-11T08:16:06;0.40;;;0.25;;
43042;SDS011;28667;50.758;6.096;2022-11-11T08:18:51;0.60;;;0.52;;
43042;SDS011;28667;50.758;6.096;2022-11-11T08:21:36;0.32;;;0.32;;
43042;SDS011;28667;50.758;6.096;2022-11-11T08:24:21;2.03;;;0.60;;
43042;SDS011;28667;50.758;6.096;2022-11-11T08:27:05;0.35;;;0.30;;
43042;SDS011;28667;50.758;6.096;2022-11-11T08:29:50;0.52;;;0.50;;
43042;SDS011;28667;50.758;6.096;2022-11-11T08:32:34;1.35;;;0.65;;
43042;SDS011;28667;50.758;6.096;2022-11-11T08:35:18;2.20;;;0.70;;
43042;SDS011;28667;50.758;6.096;2022-11-11T08:38:02;2.17;;;0.93;;
43042;SDS011;28667;50.758;6.096;2022-11-11T08:40:47;0.93;;;0.65;;
43042;SDS011;28667;50.758;6.096;2022-11-11T08:43:31;1.60;;;0.60;;
43042;SDS011;28667;50.758;6.096;2022-11-11T08:46:16;3.42;;;0.65;;
43042;SDS011;28667;50.758;6.096;2022-11-11T08:49:01;3.05;;;0.60;;
43042;SDS011;28667;50.758;6.096;2022-11-11T08:51:45;0.38;;;0.38;;
43042;SDS011;28667;50.758;6.096;2022-11-11T08:54:29;0.50;;;0.45;;
43042;SDS011;28667;50.758;6.096;2022-11-11T08:57:15;0.98;;;0.70;;
43042;SDS011;28667;50.758;6.096;2022-11-11T09:00:00;2.43;;;0.83;;
43042;SDS011;28667;50.758;6.096;2022-11-11T09:05:29;1.02;;;0.60;;
43042;SDS011;28667;50.758;6.096;2022-11-11T09:08:14;0.73;;;0.45;;
43042;SDS011;28667;50.758;6.096;2022-11-11T09:10:59;0.60;;;0.40;;
43042;SDS011;28667;50.758;6.096;2022-11-11T09:13:43;0.77;;;0.32;;
43042;SDS011;28667;50.758;6.096;2022-11-11T09:16:27;0.40;;;0.38;;
43042;SDS011;28667;50.758;6.096;2022-11-11T09:19:11;0.68;;;0.60;;
43042;SDS011;28667;50.758;6.096;2022-11-11T09:21:55;1.38;;;0.70;;
43042;SDS011;28667;50.758;6.096;2022-11-11T09:24:40;0.82;;;0.57;;
43042;SDS011;28667;50.758;6.096;2022-11-11T09:27:24;0.32;;;0.30;;
43042;SDS011;28667;50.758;6.096;2022-11-11T09:30:09;0.60;;;0.50;;
43042;SDS011;28667;50.758;6.096;2022-11-11T09:32:54;0.47;;;0.30;;
43042;SDS011;28667;50.758;6.096;2022-11-11T09:35:43;0.40;;;0.40;;
43042;SDS011;28667;50.758;6.096;2022-11-11T09:38:28;1.93;;;0.30;;
43042;SDS011;28667;50.758;6.096;2022-11-11T09:41:22;0.43;;;0.30;;
43042;SDS011;28667;50.758;6.096;2022-11-11T09:44:20;1.00;;;0.90;;
43042;SDS011;28667;50.758;6.096;2022-11-11T09:47:25;0.50;;;0.50;;
43042;SDS011;28667;50.758;6.096;2022-11-11T09:50:33;0.52;;;0.47;;
43042;SDS011;28667;50.758;6.096;2022-11-11T09:53:21;0.52;;;0.40;;
43042;SDS011;28667;50.758;6.096;2022-11-11T09:56:12;1.60;;;0.65;;
43042;SDS011;28667;50.758;6.096;2022-11-11T09:59:04;1.50;;;0.70;;
43042;SDS011;28667;50.758;6.096;2022-11-11T10:01:55;3.10;;;0.70;;
43042;SDS011;28667;50.758;6.096;2022-11-11T10:04:50;0.88;;;0.80;;
43042;SDS011;28667;50.758;6.096;2022-11-11T10:07:59;0.30;;;0.30;;
43042;SDS011;28667;50.758;6.096;2022-11-11T10:10:59;1.10;;;0.35;;
43042;SDS011;28667;50.758;6.096;2022-11-11T10:13:43;0.77;;;0.38;;
43042;SDS011;28667;50.758;6.096;2022-11-11T10:22:49;1.58;;;0.30;;
43042;SDS011;28667;50.758;6.096;2022-11-11T10:25:40;0.65;;;0.25;;
43042;SDS011;28667;50.758;6.096;2022-11-11T10:28:34;0.20;;;0.20;;
43042;SDS011;28667;50.758;6.096;2022-11-11T10:31:22;0.30;;;0.30;;
43042;SDS011;28667;50.758;6.096;2022-11-11T10:34:09;0.93;;;0.30;;
43042;SDS011;28667;50.758;6.096;2022-11-11T10:36:55;0.28;;;0.20;;
43042;SDS011;28667;50.758;6.096;2022-11-11T10:40:24;0.30;;;0.30;;
43042;SDS011;28667;50.758;6.096;2022-11-11T10:43:10;0.93;;;0.40;;
43042;SDS011;28667;50.758;6.096;2022-11-11T10:49:06;0.45;;;0.40;;
43042;SDS011;28667;50.758;6.096;2022-11-11T10:51:56;0.45;;;0.40;;
43042;SDS011;28667;50.758;6.096;2022-11-11T10:55:08;0.38;;;0.30;;
43042;SDS011;28667;50.758;6.096;2022-11-11T10:58:23;0.22;;;0.20;;
43042;SDS011;28667;50.758;6.096;2022-11-11T11:01:19;2.17;;;0.40;;
43042;SDS011;28667;50.758;6.096;2022-11-11T11:04:30;0.30;;;0.20;;
43042;SDS011;28667;50.758;6.096;2022-11-11T11:07:39;0.50;;;0.45;;
43042;SDS011;28667;50.758;6.096;2022-11-11T11:10:36;0.45;;;0.30;;
43042;SDS011;28667;50.758;6.096;2022-11-11T11:16:35;1.23;;;0.40;;
43042;SDS011;28667;50.758;6.096;2022-11-11T11:19:27;1.27;;;0.63;;
43042;SDS011;28667;50.758;6.096;2022-11-11T11:25:07;1.10;;;0.40;;
43042;SDS011;28667;50.758;6.096;2022-11-11T11:28:03;0.50;;;0.20;;
43042;SDS011;28667;50.758;6.096;2022-11-11T11:30:57;0.25;;;0.20;;
43042;SDS011;28667;50.758;6.096;2022-11-11T11:33:52;0.32;;;0.32;;
43042;SDS011;28667;50.758;6.096;2022-11-11T11:36:38;1.50;;;0.50;;
43042;SDS011;28667;50.758;6.096;2022-11-11T11:39:36;0.28;;;0.28;;
43042;SDS011;28667;50.758;6.096;2022-11-11T11:45:24;0.55;;;0.40;;
43042;SDS011;28667;50.758;6.096;2022-11-11T11:57:23;0.60;;;0.30;;
43042;SDS011;28667;50.758;6.096;2022-11-11T12:00:20;0.43;;;0.43;;
43042;SDS011;28667;50.758;6.096;2022-11-11T12:06:28;0.80;;;0.40;;
43042;SDS011;28667;50.758;6.096;2022-11-11T12:12:23;1.08;;;0.55;;
43042;SDS011;28667;50.758;6.096;2022-11-11T12:21:41;0.32;;;0.22;;
43042;SDS011;28667;50.758;6.096;2022-11-11T12:24:44;0.70;;;0.22;;
43042;SDS011;28667;50.758;6.096;2022-11-11T12:27:51;0.32;;;0.22;;
43042;SDS011;28667;50.758;6.096;2022-11-11T12:30:58;1.30;;;0.40;;
43042;SDS011;28667;50.758;6.096;2022-11-11T12:34:08;0.50;;;0.40;;
43042;SDS011;28667;50.758;6.096;2022-11-11T12:50:03;0.55;;;0.50;;
43042;SDS011;28667;50.758;6.096;2022-11-11T12:52:58;1.85;;;0.35;;
43042;SDS011;28667;50.758;6.096;2022-11-11T13:11:38;0.68;;;0.40;;
43042;SDS011;28667;50.758;6.096;2022-11-11T13:15:32;1.70;;;0.40;;
43042;SDS011;28667;50.758;6.096;2022-11-11T13:17:56;0.82;;;0.40;;
43042;SDS011;28667;50.758;6.096;2022-11-11T13:20:51;2.85;;;0.47;;
43042;SDS011;28667;50.758;6.096;2022-11-11T13:23:43;0.80;;;0.50;;
43042;SDS011;28667;50.758;6.096;2022-11-11T13:32:28;0.45;;;0.40;;
43042;SDS011;28667;50.758;6.096;2022-11-11T13:35:24;0.40;;;0.30;;
43042;SDS011;28667;50.758;6.096;2022-11-11T13:38:11;0.88;;;0.43;;
43042;SDS011;28667;50.758;6.096;2022-11-11T13:41:36;0.70;;;0.65;;
43042;SDS011;28667;50.758;6.096;2022-11-11T13:44:24;1.20;;;0.35;;
43042;SDS011;28667;50.758;6.096;2022-11-11T13:47:16;0.88;;;0.30;;
43042;SDS011;28667;50.758;6.096;2022-11-11T13:52:53;1.05;;;0.32;;
43042;SDS011;28667;50.758;6.096;2022-11-11T13:55:43;1.20;;;0.45;;
43042;SDS011;28667;50.758;6.096;2022-11-11T13:58:31;0.88;;;0.60;;
43042;SDS011;28667;50.758;6.096;2022-11-11T14:01:17;1.95;;;0.35;;
43042;SDS011;28667;50.758;6.096;2022-11-11T14:04:08;0.98;;;0.45;;
43042;SDS011;28667;50.758;6.096;2022-11-11T14:06:54;0.30;;;0.30;;
43042;SDS011;28667;50.758;6.096;2022-11-11T14:09:55;0.85;;;0.45;;
43042;SDS011;28667;50.758;6.096;2022-11-11T14:15:42;0.52;;;0.30;;
43042;SDS011;28667;50.758;6.096;2022-11-11T14:18:36;0.43;;;0.30;;
43042;SDS011;28667;50.758;6.096;2022-11-11T14:24:43;1.30;;;0.32;;
43042;SDS011;28667;50.758;6.096;2022-11-11T14:27:29;0.35;;;0.25;;
43042;SDS011;28667;50.758;6.096;2022-11-11T14:30:35;0.43;;;0.43;;
43042;SDS011;28667;50.758;6.096;2022-11-11T14:33:34;0.28;;;0.28;;
43042;SDS011;28667;50.758;6.096;2022-11-11T14:37:01;0.75;;;0.38;;
43042;SDS011;28667;50.758;6.096;2022-11-11T14:40:11;0.73;;;0.40;;
43042;SDS011;28667;50.758;6.096;2022-11-11T14:42:56;0.70;;;0.65;;
43042;SDS011;28667;50.758;6.096;2022-11-11T14:51:39;0.63;;;0.63;;
43042;SDS011;28667;50.758;6.096;2022-11-11T14:55:14;1.40;;;0.63;;
43042;SDS011;28667;50.758;6.096;2022-11-11T14:57:38;0.60;;;0.47;;
43042;SDS011;28667;50.758;6.096;2022-11-11T15:04:03;1.02;;;0.57;;
43042;SDS011;28667;50.758;6.096;2022-11-11T15:06:52;1.15;;;0.85;;
43042;SDS011;28667;50.758;6.096;2022-11-11T15:19:08;0.60;;;0.60;;
43042;SDS011;28667;50.758;6.096;2022-11-11T15:24:49;0.60;;;0.60;;
43042;SDS011;28667;50.758;6.096;2022-11-11T15:27:54;1.17;;;0.70;;
43042;SDS011;28667;50.758;6.096;2022-11-11T15:30:56;0.95;;;0.90;;
43042;SDS011;28667;50.758;6.096;2022-11-11T15:33:51;1.02;;;0.80;;
43042;SDS011;28667;50.758;6.096;2022-11-11T15:39:59;1.20;;;0.70;;
43042;SDS011;28667;50.758;6.096;2022-11-11T15:42:43;0.98;;;0.90;;
43042;SDS011;28667;50.758;6.096;2022-11-11T15:45:31;2.35;;;0.98;;
43042;SDS011;28667;50.758;6.096;2022-11-11T15:48:19;0.80;;;0.80;;
43042;SDS011;28667;50.758;6.096;2022-11-11T15:51:24;0.82;;;0.70;;
43042;SDS011;28667;50.758;6.096;2022-11-11T15:57:23;2.17;;;1.42;;
43042;SDS011;28667;50.758;6.096;2022-11-11T16:03:17;1.83;;;1.60;;
43042;SDS011;28667;50.758;6.096;2022-11-11T16:06:25;1.33;;;1.20;;
43042;SDS011;28667;50.758;6.096;2022-11-11T16:09:11;2.83;;;1.70;;
43042;SDS011;28667;50.758;6.096;2022-11-11T16:11:58;2.92;;;1.40;;
43042;SDS011;28667;50.758;6.096;2022-11-11T16:14:43;1.67;;;0.73;;
43042;SDS011;28667;50.758;6.096;2022-11-11T16:17:33;0.90;;;0.60;;
43042;SDS011;28667;50.758;6.096;2022-11-11T16:20:28;3.58;;;0.70;;
43042;SDS011;28667;50.758;6.096;2022-11-11T16:23:18;1.35;;;0.73;;
43042;SDS011;28667;50.758;6.096;2022-11-11T16:26:03;2.03;;;1.38;;
43042;SDS011;28667;50.758;6.096;2022-11-11T16:28:52;2.63;;;1.30;;
43042;SDS011;28667;50.758;6.096;2022-11-11T16:31:38;5.35;;;1.65;;
43042;SDS011;28667;50.758;6.096;2022-11-11T16:37:11;3.83;;;1.83;;
43042;SDS011;28667;50.758;6.096;2022-11-11T16:40:19;3.05;;;2.00;;
43042;SDS011;28667;50.758;6.096;2022-11-11T16:46:07;5.05;;;2.30;;
43042;SDS011;28667;50.758;6.096;2022-11-11T16:48:55;4.00;;;2.20;;
43042;SDS011;28667;50.758;6.096;2022-11-11T16:51:45;2.67;;;2.03;;
43042;SDS011;28667;50.758;6.096;2022-11-11T16:54:31;2.33;;;1.50;;
43042;SDS011;28667;50.758;6.096;2022-11-11T16:57:30;4.30;;;2.92;;
43042;SDS011;28667;50.758;6.096;2022-11-11T17:00:17;2.63;;;1.73;;
43042;SDS011;28667;50.758;6.096;2022-11-11T17:08:40;5.40;;;1.90;;
43042;SDS011;28667;50.758;6.096;2022-11-11T17:14:24;3.03;;;2.72;;
43042;SDS011;28667;50.758;6.096;2022-11-11T17:17:10;2.70;;;2.28;;
43042;SDS011;28667;50.758;6.096;2022-11-11T17:19:55;5.25;;;2.20;;
43042;SDS011;28667;50.758;6.096;2022-11-11T17:22:49;4.32;;;2.10;;
43042;SDS011;28667;50.758;6.096;2022-11-11T17:25:35;3.75;;;2.15;;
43042;SDS011;28667;50.758;6.096;2022-11-11T17:28:19;8.82;;;4.75;;
43042;SDS011;28667;50.758;6.096;2022-11-11T17:31:04;14.18;;;5.72;;
43042;SDS011;28667;50.758;6.096;2022-11-11T17:33:49;32.50;;;8.48;;
43042;SDS011;28667;50.758;6.096;2022-11-11T17:36:33;32.95;;;9.30;;
43042;SDS011;28667;50.758;6.096;2022-11-11T17:39:17;25.05;;;6.38;;
43042;SDS011;28667;50.758;6.096;2022-11-11T17:42:02;14.20;;;5.33;;
43042;SDS011;28667;50.758;6.096;2022-11-11T17:44:46;7.10;;;3.25;;
43042;SDS011;28667;50.758;6.096;2022-11-11T17:47:31;9.13;;;3.30;;
43042;SDS011;28667;50.758;6.096;2022-11-11T17:50:16;12.90;;;3.60;;
43042;SDS011;28667;50.758;6.096;2022-11-11T17:53:00;8.90;;;4.40;;
43042;SDS011;28667;50.758;6.096;2022-11-11T17:55:45;13.63;;;4.23;;
43042;SDS011;28667;50.758;6.096;2022-11-11T17:58:29;9.52;;;3.92;;
43042;SDS011;28667;50.758;6.096;2022-11-11T18:01:14;5.13;;;3.17;;
43042;SDS011;28667;50.758;6.096;2022-11-11T18:03:58;3.13;;;2.20;;
43042;SDS011;28667;50.758;6.096;2022-11-11T18:06:43;5.18;;;2.88;;
43042;SDS011;28667;50.758;6.096;2022-11-11T18:09:27;5.60;;;2.58;;
43042;SDS011;28667;50.758;6.096;2022-11-11T18:12:11;4.63;;;2.43;;
43042;SDS011;28667;50.758;6.096;2022-11-11T18:14:56;6.30;;;3.00;;
43042;SDS011;28667;50.758;6.096;2022-11-11T18:17:40;6.45;;;3.25;;
43042;SDS011;28667;50.758;6.096;2022-11-11T18:20:25;4.20;;;1.73;;
43042;SDS011;28667;50.758;6.096;2022-11-11T18:23:09;3.95;;;2.60;;
43042;SDS011;28667;50.758;6.096;2022-11-11T18:25:53;6.82;;;2.35;;
43042;SDS011;28667;50.758;6.096;2022-11-11T18:28:38;8.03;;;2.87;;
43042;SDS011;28667;50.758;6.096;2022-11-11T18:31:22;5.90;;;3.22;;
43042;SDS011;28667;50.758;6.096;2022-11-11T18:34:07;5.43;;;2.90;;
43042;SDS011;28667;50.758;6.096;2022-11-11T18:36:51;3.13;;;2.80;;
43042;SDS011;28667;50.758;6.096;2022-11-11T18:39:36;8.70;;;3.92;;
43042;SDS011;28667;50.758;6.096;2022-11-11T18:42:20;6.78;;;3.42;;
43042;SDS011;28667;50.758;6.096;2022-11-11T18:45:05;8.00;;;3.67;;
43042;SDS011;28667;50.758;6.096;2022-11-11T18:47:49;10.27;;;3.83;;
43042;SDS011;28667;50.758;6.096;2022-11-11T18:50:33;4.78;;;3.63;;
43042;SDS011;28667;50.758;6.096;2022-11-11T18:53:18;7.78;;;4.20;;
43042;SDS011;28667;50.758;6.096;2022-11-11T19:01:36;6.67;;;3.57;;
43042;SDS011;28667;50.758;6.096;2022-11-11T19:04:22;3.88;;;2.75;;
43042;SDS011;28667;50.758;6.096;2022-11-11T19:07:06;4.25;;;3.30;;
43042;SDS011;28667;50.758;6.096;2022-11-11T19:09:50;9.52;;;4.65;;
43042;SDS011;28667;50.758;6.096;2022-11-11T19:12:35;19.15;;;8.40;;
43042;SDS011;28667;50.758;6.096;2022-11-11T19:15:19;22.60;;;8.68;;
43042;SDS011;28667;50.758;6.096;2022-11-11T19:18:03;19.00;;;7.95;;
43042;SDS011;28667;50.758;6.096;2022-11-11T19:20:47;14.07;;;6.35;;
43042;SDS011;28667;50.758;6.096;2022-11-11T19:23:32;7.05;;;4.75;;
43042;SDS011;28667;50.758;6.096;2022-11-11T19:26:17;11.70;;;4.57;;
43042;SDS011;28667;50.758;6.096;2022-11-11T19:29:03;8.45;;;4.07;;
43042;SDS011;28667;50.758;6.096;2022-11-11T19:31:52;7.95;;;4.07;;
43042;SDS011;28667;50.758;6.096;2022-11-11T19:34:36;9.15;;;4.20;;
43042;SDS011;28667;50.758;6.096;2022-11-11T19:37:21;6.25;;;3.78;;
43042;SDS011;28667;50.758;6.096;2022-11-11T19:40:07;8.80;;;3.28;;
43042;SDS011;28667;50.758;6.096;2022-11-11T19:42:52;5.43;;;4.10;;
43042;SDS011;28667;50.758;6.096;2022-11-11T19:45:36;4.13;;;3.50;;
43042;SDS011;28667;50.758;6.096;2022-11-11T19:48:20;8.30;;;4.00;;
43042;SDS011;28667;50.758;6.096;2022-11-11T19:51:09;6.80;;;3.67;;
43042;SDS011;28667;50.758;6.096;2022-11-11T19:53:55;6.55;;;4.35;;